createdAt,value
2022-08-20T00:08:36.135Z,16.05
2022-08-20T00:18:39.785Z,15.97
2022-08-20T00:28:42.202Z,15.86
2022-08-20T00:38:47.053Z,15.84
2022-08-20T00:48:52.681Z,15.93
2022-08-20T00:58:55.522Z,16.00
2022-08-20T01:08:58.988Z,15.95
2022-08-20T01:19:03.050Z,15.83
2022-08-20T01:29:30.445Z,15.85
2022-08-20T01:39:36.216Z,15.95
2022-08-20T01:49:44.430Z,16.03
2022-08-20T01:59:50.432Z,16.00
2022-08-20T02:09:53.085Z,15.96
2022-08-20T02:20:02.087Z,16.00
2022-08-20T02:30:11.409Z,16.06
2022-08-20T02:40:30.979Z,16.11
2022-08-20T02:50:33.917Z,16.17
2022-08-20T03:00:38.150Z,16.20
2022-08-20T03:10:44.255Z,16.25
2022-08-20T03:20:47.583Z,16.29
2022-08-20T03:30:56.991Z,16.36
2022-08-20T03:40:59.624Z,16.41
2022-08-20T03:51:02.891Z,16.46
2022-08-20T04:01:07.211Z,16.49
2022-08-20T04:11:10.113Z,16.48
2022-08-20T04:21:12.491Z,16.48
2022-08-20T04:31:14.856Z,16.46
2022-08-20T04:41:21.091Z,16.52
2022-08-20T04:51:26.870Z,16.66
2022-08-20T05:01:30.331Z,16.79
2022-08-20T05:11:36.697Z,16.89
2022-08-20T05:21:41.094Z,16.92
2022-08-20T05:31:44.235Z,16.93
2022-08-20T05:41:49.803Z,16.94
2022-08-20T05:51:52.706Z,16.93
2022-08-20T06:01:55.434Z,16.99
2022-08-20T06:11:59.826Z,17.08
2022-08-20T06:22:17.296Z,17.13
2022-08-20T06:32:31.993Z,17.19
2022-08-20T06:42:36.977Z,17.20
2022-08-20T06:52:52.535Z,17.26
2022-08-20T07:02:56.103Z,17.24
2022-08-20T07:13:00.511Z,17.34
2022-08-20T07:23:03.342Z,17.52
2022-08-20T07:33:07.000Z,17.81
2022-08-20T07:43:11.185Z,18.07
2022-08-20T07:53:14.423Z,18.58
2022-08-20T08:03:17.059Z,19.25
2022-08-20T08:13:19.994Z,19.79
2022-08-20T08:23:31.749Z,20.15
2022-08-20T08:33:35.168Z,20.42
2022-08-20T08:43:38.115Z,20.83
2022-08-20T08:53:53.749Z,20.57
2022-08-20T09:03:56.553Z,20.90
2022-08-20T09:13:59.817Z,21.69
2022-08-20T09:24:03.307Z,21.71
2022-08-20T09:34:06.965Z,21.60
2022-08-20T09:44:10.008Z,21.92
2022-08-20T09:54:13.157Z,22.32
2022-08-20T10:04:16.683Z,22.56
2022-08-20T10:14:19.785Z,23.23
2022-08-20T10:24:23.549Z,22.54
2022-08-20T10:34:26.624Z,22.23
2022-08-20T10:44:29.538Z,23.58
2022-08-20T10:54:32.239Z,23.47
2022-08-20T11:04:35.989Z,24.55
2022-08-20T11:14:39.567Z,24.40
2022-08-20T11:24:42.088Z,23.14
2022-08-20T11:34:49.966Z,24.00
2022-08-20T11:44:53.260Z,24.58
2022-08-20T11:54:57.067Z,25.31
2022-08-20T12:05:01.335Z,24.20
2022-08-20T12:15:05.716Z,23.48
2022-08-20T12:25:09.170Z,24.39
2022-08-20T12:35:13.409Z,25.21
2022-08-20T12:45:18.188Z,25.56
2022-08-20T12:55:21.336Z,25.01
2022-08-20T13:05:25.575Z,25.76
2022-08-20T13:15:29.585Z,26.89
2022-08-20T13:25:33.133Z,27.14
2022-08-20T13:35:38.153Z,27.77
2022-08-20T13:45:42.230Z,27.97
2022-08-20T13:55:45.843Z,27.24
2022-08-20T14:05:48.952Z,26.43
2022-08-20T14:15:52.732Z,24.96
2022-08-20T14:25:55.528Z,24.12
2022-08-20T14:35:58.934Z,24.00
2022-08-20T14:46:01.880Z,25.03
2022-08-20T14:56:05.273Z,24.59
2022-08-20T15:06:18.620Z,24.59
2022-08-20T15:16:25.594Z,24.55
2022-08-20T15:26:32.395Z,24.65
2022-08-20T15:36:34.890Z,24.13
2022-08-20T15:46:39.571Z,23.64
2022-08-20T15:57:03.272Z,23.55
2022-08-20T16:07:16.393Z,23.82
2022-08-20T16:17:33.725Z,24.08
2022-08-20T16:28:01.276Z,23.75
2022-08-20T16:38:34.558Z,23.38
2022-08-20T16:48:42.574Z,23.29
2022-08-20T16:58:47.221Z,23.91
2022-08-20T17:08:51.305Z,23.45
2022-08-20T17:19:09.685Z,22.62
2022-08-20T17:29:36.927Z,22.00
2022-08-20T17:39:53.110Z,21.53
2022-08-20T17:50:04.698Z,21.17
2022-08-20T18:00:24.833Z,20.81
2022-08-20T18:10:31.217Z,20.45
2022-08-20T18:20:55.129Z,20.10
2022-08-20T18:31:03.753Z,19.73
2022-08-20T18:41:30.814Z,19.39
2022-08-20T18:51:44.768Z,19.11
2022-08-20T19:01:51.369Z,18.86
2022-08-20T19:12:07.059Z,18.59
2022-08-20T19:22:22.565Z,18.35
2022-08-20T19:32:32.260Z,18.14
2022-08-20T19:42:49.458Z,17.93
2022-08-20T19:53:38.949Z,17.80
2022-08-20T20:03:58.334Z,17.70
2022-08-20T20:14:27.184Z,17.60
2022-08-20T20:24:47.700Z,17.42
2022-08-20T20:35:00.156Z,17.23
2022-08-20T20:45:31.161Z,17.09
2022-08-20T20:55:37.832Z,17.03
2022-08-20T21:05:41.146Z,16.93
2022-08-20T21:15:47.472Z,16.76
2022-08-20T21:26:06.786Z,16.64
2022-08-20T21:36:16.594Z,16.49
2022-08-20T21:46:37.228Z,16.34
2022-08-20T21:56:55.401Z,16.20
2022-08-20T22:17:23.336Z,15.97
2022-08-20T22:27:29.722Z,15.95
2022-08-20T22:37:40.574Z,15.87
2022-08-20T22:47:49.263Z,15.66
2022-08-20T22:57:57.080Z,15.56
2022-08-20T23:08:05.589Z,15.46
2022-08-20T23:18:14.549Z,15.29
2022-08-20T23:28:42.735Z,15.19
2022-08-20T23:38:49.460Z,15.02
2022-08-20T23:48:53.885Z,14.95
